PWSweather.com
Personal Weather Stations
Station Observations
BANEKERE1
AntwerpenBE

AntwerpenBE

Lat: 51.2809101, Lon: 4.4202713

Elevation: 40

Station Type:

http://www.akker.be

Latest ConditionsUpdated 6:10:02 PM GMT+01:01 Friday, Mar 27, 2015
Currently Today's Max Today's Min Today's Average
Temperature 48.9°F9.4°C 51.4°F10.8°C 42.7°F5.9°C 46.5°F8.1°C
Dew Point 39.9°F4.4°C 41.7°F5.4°C 38.0°F3.3°C 39.4°F4.1°C
Winds 4.6 mph W7.4 kmh W 9.2 mph NW14.8 kmh NW - 4.7 mph 7.6 kmh
Wind Gusts 6.9 mph11.1 kmh 16.1 mph25.9 kmh - -
Humidity 71% 85% 63% 77%
Pressure 30.20 in1022.7 mb 30.20 in1022.7 mb 29.85 in1010.8 mb -
Hour Temp Dew Point Humidity Winds Wind Gusts Pressure Precip Precip Rate Daily Precip Total
06:10 PM 48.9°F9.4°C 39.9°F4.4°C 71% 4.6 mph W7.4 kmh W 6.9 mph11.1 kmh 30.20 in1022.7 mb - 0.00 in0.0 mm 0.00 in0.0 mm
06:00 PM 49.1°F9.5°C 39.7°F4.3°C 70% 2.3 mph NNW3.7 kmh NNW 2.3 mph3.7 kmh 30.20 in1022.7 mb - 0.00 in0.0 mm 0.00 in0.0 mm
05:50 PM 49.4°F9.7°C 39.6°F4.2°C 69% 3.5 mph W5.6 kmh W 6.9 mph11.1 kmh 30.20 in1022.7 mb - 0.00 in0.0 mm 0.00 in0.0 mm
05:40 PM 49.6°F9.8°C 39.8°F4.3°C 69% 2.3 mph NW3.7 kmh NW 4.6 mph7.4 kmh 30.19 in1022.4 mb - 0.00 in0.0 mm 0.00 in0.0 mm
05:30 PM 49.7°F9.8°C 39.6°F4.2°C 68% 4.6 mph NW7.4 kmh NW 8.1 mph13.0 kmh 30.20 in1022.7 mb - 0.00 in0.0 mm 0.00 in0.0 mm
05:20 PM 49.9°F9.9°C 39.8°F4.3°C 68% 2.3 mph NW3.7 kmh NW 3.5 mph5.6 kmh 30.19 in1022.4 mb - 0.00 in0.0 mm 0.00 in0.0 mm
05:10 PM 50.0°F10.0°C 39.1°F3.9°C 66% 3.5 mph ENE5.6 kmh ENE 8.1 mph13.0 kmh 30.19 in1022.4 mb - 0.00 in0.0 mm 0.00 in0.0 mm
05:00 PM 49.9°F9.9°C 39.4°F4.1°C 67% 4.6 mph W7.4 kmh W 8.1 mph13.0 kmh 30.19 in1022.4 mb - 0.00 in0.0 mm 0.00 in0.0 mm
04:50 PM 49.9°F9.9°C 39.0°F3.9°C 66% 5.8 mph NW9.3 kmh NW 10.4 mph16.7 kmh 30.18 in1022.0 mb - 0.00 in0.0 mm 0.00 in0.0 mm
04:40 PM 50.2°F10.1°C 38.1°F3.4°C 63% 3.5 mph E5.6 kmh E 6.9 mph11.1 kmh 30.18 in1022.0 mb - 0.00 in0.0 mm 0.00 in0.0 mm
04:30 PM 50.3°F10.2°C 38.6°F3.7°C 64% 3.5 mph W5.6 kmh W 10.4 mph16.7 kmh 30.18 in1022.0 mb - 0.00 in0.0 mm 0.00 in0.0 mm
04:20 PM 50.5°F10.3°C 38.4°F3.6°C 63% 4.6 mph WSW7.4 kmh WSW 8.1 mph13.0 kmh 30.18 in1022.0 mb - 0.00 in0.0 mm 0.00 in0.0 mm
04:10 PM 50.8°F10.4°C 39.1°F3.9°C 64% 3.5 mph NNW5.6 kmh NNW 5.8 mph9.3 kmh 30.18 in1022.0 mb - 0.00 in0.0 mm 0.00 in0.0 mm
04:00 PM 51.0°F10.6°C 39.7°F4.3°C 65% 4.6 mph NW7.4 kmh NW 8.1 mph13.0 kmh 30.18 in1022.0 mb - 0.00 in0.0 mm 0.00 in0.0 mm
03:50 PM 51.1°F10.6°C 40.5°F4.7°C 67% 4.6 mph SW7.4 kmh SW 12.7 mph20.4 kmh 30.17 in1021.7 mb - 0.00 in0.0 mm 0.00 in0.0 mm
03:40 PM 51.4°F10.8°C 40.0°F4.4°C 65% 6.9 mph NNW11.1 kmh NNW 6.9 mph11.1 kmh 30.17 in1021.7 mb - 0.00 in0.0 mm 0.00 in0.0 mm
03:30 PM 51.3°F10.7°C 40.3°F4.6°C 66% 6.9 mph NW11.1 kmh NW 9.2 mph14.8 kmh 30.17 in1021.7 mb - 0.00 in0.0 mm 0.00 in0.0 mm
03:20 PM 51.4°F10.8°C 40.4°F4.7°C 66% 9.2 mph NW14.8 kmh NW 15.0 mph24.1 kmh 30.17 in1021.7 mb - 0.00 in0.0 mm 0.00 in0.0 mm
03:10 PM 51.0°F10.6°C 40.4°F4.7°C 67% 8.1 mph W13.0 kmh W 12.7 mph20.4 kmh 30.16 in1021.3 mb - 0.00 in0.0 mm 0.00 in0.0 mm
03:00 PM 50.3°F10.2°C 39.8°F4.3°C 67% 2.3 mph N3.7 kmh N 6.9 mph11.1 kmh 30.16 in1021.3 mb - 0.00 in0.0 mm 0.00 in0.0 mm
02:50 PM 50.5°F10.3°C 39.6°F4.2°C 66% 5.8 mph WSW9.3 kmh WSW 10.4 mph16.7 kmh 30.16 in1021.3 mb - 0.00 in0.0 mm 0.00 in0.0 mm
02:40 PM 51.3°F10.7°C 40.8°F4.9°C 67% 5.8 mph W9.3 kmh W 10.4 mph16.7 kmh 30.16 in1021.3 mb - 0.00 in0.0 mm 0.00 in0.0 mm
02:30 PM 51.3°F10.7°C 41.5°F5.3°C 69% 6.9 mph NW11.1 kmh NW 10.4 mph16.7 kmh 30.16 in1021.3 mb - 0.00 in0.0 mm 0.00 in0.0 mm
02:20 PM 50.3°F10.2°C 41.6°F5.3°C 72% 4.6 mph WSW7.4 kmh WSW 13.8 mph22.2 kmh 30.16 in1021.3 mb - 0.00 in0.0 mm 0.00 in0.0 mm
02:10 PM 49.4°F9.7°C 41.1°F5.1°C 73% 6.9 mph WSW11.1 kmh WSW 10.4 mph16.7 kmh 30.15 in1021.0 mb - 0.00 in0.0 mm 0.00 in0.0 mm
02:00 PM 49.4°F9.7°C 41.1°F5.1°C 73% 2.3 mph N3.7 kmh N 12.7 mph20.4 kmh 30.15 in1021.0 mb - 0.00 in0.0 mm 0.00 in0.0 mm
01:50 PM 49.5°F9.7°C 40.8°F4.9°C 72% 3.5 mph W5.6 kmh W 6.9 mph11.1 kmh 30.14 in1020.7 mb - 0.00 in0.0 mm 0.00 in0.0 mm
01:40 PM 49.8°F9.9°C 40.8°F4.9°C 71% 5.8 mph W9.3 kmh W 9.2 mph14.8 kmh 30.14 in1020.7 mb - 0.00 in0.0 mm 0.00 in0.0 mm
01:30 PM 49.7°F9.8°C 40.7°F4.8°C 71% 5.8 mph SW9.3 kmh SW 6.9 mph11.1 kmh 30.14 in1020.7 mb - 0.00 in0.0 mm 0.00 in0.0 mm
01:20 PM 49.6°F9.8°C 41.7°F5.4°C 74% 5.8 mph WSW9.3 kmh WSW 10.4 mph16.7 kmh 30.13 in1020.3 mb - 0.00 in0.0 mm 0.00 in0.0 mm
01:10 PM 48.8°F9.3°C 41.2°F5.1°C 75% 4.6 mph WNW7.4 kmh WNW 11.5 mph18.5 kmh 30.13 in1020.3 mb - 0.00 in0.0 mm 0.00 in0.0 mm
01:00 PM 48.4°F9.1°C 40.5°F4.7°C 74% 2.3 mph WNW3.7 kmh WNW 9.2 mph14.8 kmh 30.14 in1020.7 mb - 0.00 in0.0 mm 0.00 in0.0 mm
12:50 PM 48.4°F9.1°C 40.5°F4.7°C 74% 4.6 mph W7.4 kmh W 12.7 mph20.4 kmh 30.14 in1020.7 mb - 0.00 in0.0 mm 0.00 in0.0 mm
12:40 PM 48.1°F8.9°C 40.5°F4.7°C 75% 6.9 mph W11.1 kmh W 9.2 mph14.8 kmh 30.13 in1020.3 mb - 0.00 in0.0 mm 0.00 in0.0 mm
12:30 PM 47.9°F8.8°C 40.0°F4.4°C 74% 4.6 mph NW7.4 kmh NW 12.7 mph20.4 kmh 30.13 in1020.3 mb - 0.00 in0.0 mm 0.00 in0.0 mm
12:20 PM 47.9°F8.8°C 40.0°F4.4°C 74% 8.1 mph WSW13.0 kmh WSW 10.4 mph16.7 kmh 30.13 in1020.3 mb - 0.00 in0.0 mm 0.00 in0.0 mm
12:10 PM 47.9°F8.8°C 40.4°F4.7°C 75% 5.8 mph WNW9.3 kmh WNW 11.5 mph18.5 kmh 30.12 in1020.0 mb - 0.00 in0.0 mm 0.00 in0.0 mm
12:00 PM 48.2°F9.0°C 41.0°F5.0°C 76% 3.5 mph SW5.6 kmh SW 10.4 mph16.7 kmh 30.12 in1020.0 mb - 0.00 in0.0 mm 0.00 in0.0 mm
11:50 AM 48.1°F8.9°C 40.9°F4.9°C 76% 6.9 mph W11.1 kmh W 11.5 mph18.5 kmh 30.12 in1020.0 mb - 0.00 in0.0 mm 0.00 in0.0 mm
11:40 AM 48.0°F8.9°C 40.4°F4.7°C 75% 3.5 mph W5.6 kmh W 4.6 mph7.4 kmh 30.11 in1019.6 mb - 0.00 in0.0 mm 0.00 in0.0 mm
11:30 AM 48.3°F9.1°C 40.4°F4.7°C 74% 4.6 mph WNW7.4 kmh WNW 11.5 mph18.5 kmh 30.11 in1019.6 mb - 0.00 in0.0 mm 0.00 in0.0 mm
11:20 AM 48.7°F9.3°C 40.7°F4.8°C 74% 4.6 mph WSW7.4 kmh WSW 9.2 mph14.8 kmh 30.11 in1019.6 mb - 0.00 in0.0 mm 0.00 in0.0 mm
11:10 AM 48.5°F9.2°C 40.9°F4.9°C 75% 3.5 mph WSW5.6 kmh WSW 9.2 mph14.8 kmh 30.10 in1019.3 mb - 0.00 in0.0 mm 0.00 in0.0 mm
11:00 AM 47.8°F8.8°C 40.3°F4.6°C 75% 5.8 mph WNW9.3 kmh WNW 12.7 mph20.4 kmh 30.10 in1019.3 mb - 0.00 in0.0 mm 0.00 in0.0 mm
10:50 AM 48.1°F8.9°C 40.9°F4.9°C 76% 3.5 mph NW5.6 kmh NW 10.4 mph16.7 kmh 30.10 in1019.3 mb - 0.00 in0.0 mm 0.00 in0.0 mm
10:40 AM 47.4°F8.6°C 40.6°F4.8°C 77% 3.5 mph WNW5.6 kmh WNW 9.2 mph14.8 kmh 30.09 in1019.0 mb - 0.00 in0.0 mm 0.00 in0.0 mm
10:30 AM 46.7°F8.2°C 39.9°F4.4°C 77% 6.9 mph W11.1 kmh W 12.7 mph20.4 kmh 30.09 in1019.0 mb - 0.00 in0.0 mm 0.00 in0.0 mm
10:20 AM 46.5°F8.1°C 40.0°F4.4°C 78% 4.6 mph WNW7.4 kmh WNW 6.9 mph11.1 kmh 30.09 in1019.0 mb - 0.00 in0.0 mm 0.00 in0.0 mm
10:10 AM 46.2°F7.9°C 39.7°F4.3°C 78% 6.9 mph NW11.1 kmh NW 12.7 mph20.4 kmh 30.09 in1019.0 mb - 0.00 in0.0 mm 0.00 in0.0 mm
10:00 AM 46.0°F7.8°C 39.9°F4.4°C 79% 6.9 mph WNW11.1 kmh WNW 12.7 mph20.4 kmh 30.08 in1018.6 mb - 0.00 in0.0 mm 0.00 in0.0 mm
09:50 AM 46.1°F7.8°C 39.9°F4.4°C 79% 8.1 mph NW13.0 kmh NW 13.8 mph22.2 kmh 30.08 in1018.6 mb - 0.00 in0.0 mm 0.00 in0.0 mm
09:40 AM 46.2°F7.9°C 40.0°F4.4°C 79% 5.8 mph W9.3 kmh W 10.4 mph16.7 kmh 30.07 in1018.3 mb - 0.00 in0.0 mm 0.00 in0.0 mm
09:30 AM 46.2°F7.9°C 40.4°F4.7°C 80% 6.9 mph NW11.1 kmh NW 8.1 mph13.0 kmh 30.07 in1018.3 mb - 0.00 in0.0 mm 0.00 in0.0 mm
09:20 AM 46.1°F7.8°C 40.3°F4.6°C 80% 3.5 mph WNW5.6 kmh WNW 6.9 mph11.1 kmh 30.06 in1017.9 mb - 0.00 in0.0 mm 0.00 in0.0 mm
09:10 AM 45.8°F7.7°C 40.3°F4.6°C 81% 2.3 mph WNW3.7 kmh WNW 4.6 mph7.4 kmh 30.06 in1017.9 mb - 0.00 in0.0 mm 0.00 in0.0 mm
09:00 AM 45.4°F7.4°C 39.9°F4.4°C 81% 5.8 mph W9.3 kmh W 10.4 mph16.7 kmh 30.05 in1017.6 mb - 0.00 in0.0 mm 0.00 in0.0 mm
08:50 AM 45.0°F7.2°C 39.8°F4.3°C 82% 5.8 mph W9.3 kmh W 11.5 mph18.5 kmh 30.05 in1017.6 mb - 0.00 in0.0 mm 0.00 in0.0 mm
08:40 AM 44.7°F7.1°C 39.5°F4.2°C 82% 6.9 mph WNW11.1 kmh WNW 6.9 mph11.1 kmh 30.05 in1017.6 mb - 0.00 in0.0 mm 0.00 in0.0 mm
08:30 AM 44.3°F6.8°C 39.5°F4.2°C 83% 5.8 mph N9.3 kmh N 13.8 mph22.2 kmh 30.04 in1017.3 mb - 0.00 in0.0 mm 0.00 in0.0 mm
08:20 AM 43.9°F6.6°C 39.4°F4.1°C 84% 6.9 mph WSW11.1 kmh WSW 13.8 mph22.2 kmh 30.04 in1017.3 mb - 0.00 in0.0 mm 0.00 in0.0 mm
08:10 AM 43.5°F6.4°C 39.3°F4.1°C 85% 3.5 mph W5.6 kmh W 11.5 mph18.5 kmh 30.04 in1017.3 mb - 0.00 in0.0 mm 0.00 in0.0 mm
08:00 AM 43.2°F6.2°C 39.0°F3.9°C 85% 5.8 mph WSW9.3 kmh WSW 11.5 mph18.5 kmh 30.04 in1017.3 mb - 0.00 in0.0 mm 0.00 in0.0 mm
07:50 AM 43.0°F6.1°C 38.8°F3.8°C 85% 3.5 mph SW5.6 kmh SW 5.8 mph9.3 kmh 30.04 in1017.3 mb - 0.00 in0.0 mm 0.00 in0.0 mm
07:40 AM 42.9°F6.1°C 38.7°F3.7°C 85% 4.6 mph WSW7.4 kmh WSW 8.1 mph13.0 kmh 30.03 in1016.9 mb - 0.00 in0.0 mm 0.00 in0.0 mm
07:30 AM 42.8°F6.0°C 38.6°F3.7°C 85% 3.5 mph W5.6 kmh W 4.6 mph7.4 kmh 30.03 in1016.9 mb - 0.00 in0.0 mm 0.00 in0.0 mm
07:20 AM 42.8°F6.0°C 38.3°F3.5°C 84% 4.6 mph W7.4 kmh W 5.8 mph9.3 kmh 30.02 in1016.6 mb - 0.00 in0.0 mm 0.00 in0.0 mm
07:10 AM 42.7°F5.9°C 38.2°F3.4°C 84% 2.3 mph WSW3.7 kmh WSW 6.9 mph11.1 kmh 30.02 in1016.6 mb - 0.00 in0.0 mm 0.00 in0.0 mm
07:00 AM 42.8°F6.0°C 38.3°F3.5°C 84% 3.5 mph WSW5.6 kmh WSW 4.6 mph7.4 kmh 30.02 in1016.6 mb - 0.00 in0.0 mm 0.00 in0.0 mm
06:50 AM 42.9°F6.1°C 38.1°F3.4°C 83% 6.9 mph NW11.1 kmh NW 9.2 mph14.8 kmh 30.01 in1016.3 mb - 0.00 in0.0 mm 0.00 in0.0 mm
06:40 AM 43.1°F6.2°C 38.3°F3.5°C 83% 3.5 mph WNW5.6 kmh WNW 9.2 mph14.8 kmh 30.01 in1016.3 mb - 0.00 in0.0 mm 0.00 in0.0 mm
06:30 AM 43.3°F6.3°C 38.5°F3.6°C 83% 4.6 mph W7.4 kmh W 8.1 mph13.0 kmh 30.00 in1015.9 mb - 0.00 in0.0 mm 0.00 in0.0 mm
06:20 AM 43.4°F6.3°C 38.3°F3.5°C 82% 3.5 mph W5.6 kmh W 6.9 mph11.1 kmh 29.99 in1015.6 mb - 0.00 in0.0 mm 0.00 in0.0 mm
06:10 AM 43.6°F6.4°C 38.5°F3.6°C 82% 3.5 mph NE5.6 kmh NE 5.8 mph9.3 kmh 29.99 in1015.6 mb - 0.00 in0.0 mm 0.00 in0.0 mm
06:00 AM 43.7°F6.5°C 38.6°F3.7°C 82% 4.6 mph WSW7.4 kmh WSW 8.1 mph13.0 kmh 29.98 in1015.2 mb - 0.00 in0.0 mm 0.00 in0.0 mm
05:50 AM 43.8°F6.6°C 38.7°F3.7°C 82% 4.6 mph WNW7.4 kmh WNW 8.1 mph13.0 kmh 29.98 in1015.2 mb - 0.00 in0.0 mm 0.00 in0.0 mm
05:40 AM 43.8°F6.6°C 38.7°F3.7°C 82% 4.6 mph WSW7.4 kmh WSW 9.2 mph14.8 kmh 29.97 in1014.9 mb - 0.00 in0.0 mm 0.00 in0.0 mm
05:30 AM 43.9°F6.6°C 38.8°F3.8°C 82% 4.6 mph WSW7.4 kmh WSW 9.2 mph14.8 kmh 29.97 in1014.9 mb - 0.00 in0.0 mm 0.00 in0.0 mm
05:20 AM 43.9°F6.6°C 38.4°F3.6°C 81% 3.5 mph W5.6 kmh W 11.5 mph18.5 kmh 29.97 in1014.9 mb - 0.00 in0.0 mm 0.00 in0.0 mm
05:10 AM 43.9°F6.6°C 38.4°F3.6°C 81% 2.3 mph NW3.7 kmh NW 12.7 mph20.4 kmh 29.96 in1014.6 mb - 0.00 in0.0 mm 0.00 in0.0 mm
05:00 AM 44.0°F6.7°C 38.5°F3.6°C 81% 3.5 mph WSW5.6 kmh WSW 10.4 mph16.7 kmh 29.96 in1014.6 mb - 0.00 in0.0 mm 0.00 in0.0 mm
04:50 AM 44.1°F6.7°C 38.6°F3.7°C 81% 2.3 mph S3.7 kmh S 4.6 mph7.4 kmh 29.95 in1014.2 mb - 0.00 in0.0 mm 0.00 in0.0 mm
04:40 AM 44.1°F6.7°C 38.6°F3.7°C 81% 4.6 mph W7.4 kmh W 10.4 mph16.7 kmh 29.95 in1014.2 mb - 0.00 in0.0 mm 0.00 in0.0 mm
04:30 AM 44.0°F6.7°C 38.6°F3.7°C 81% 6.9 mph W11.1 kmh W 10.4 mph16.7 kmh 29.95 in1014.2 mb - 0.00 in0.0 mm 0.00 in0.0 mm
04:20 AM 44.1°F6.7°C 38.6°F3.7°C 81% 5.8 mph W9.3 kmh W 9.2 mph14.8 kmh 29.94 in1013.9 mb - 0.00 in0.0 mm 0.00 in0.0 mm
04:10 AM 44.0°F6.7°C 38.5°F3.6°C 81% 4.6 mph WNW7.4 kmh WNW 6.9 mph11.1 kmh 29.94 in1013.9 mb - 0.00 in0.0 mm 0.00 in0.0 mm
04:00 AM 44.0°F6.7°C 38.5°F3.6°C 81% 3.5 mph WSW5.6 kmh WSW 6.9 mph11.1 kmh 29.94 in1013.9 mb - 0.00 in0.0 mm 0.00 in0.0 mm
03:50 AM 43.9°F6.6°C 38.4°F3.6°C 81% 3.5 mph WSW5.6 kmh WSW 6.9 mph11.1 kmh 29.94 in1013.9 mb - 0.00 in0.0 mm 0.00 in0.0 mm
03:40 AM 43.8°F6.6°C 38.3°F3.5°C 81% 4.6 mph WNW7.4 kmh WNW 6.9 mph11.1 kmh 29.93 in1013.5 mb - 0.00 in0.0 mm 0.00 in0.0 mm
03:30 AM 43.7°F6.5°C 38.3°F3.5°C 81% 4.6 mph W7.4 kmh W 6.9 mph11.1 kmh 29.93 in1013.5 mb - 0.00 in0.0 mm 0.00 in0.0 mm
03:20 AM 43.6°F6.4°C 38.2°F3.4°C 81% 3.5 mph WSW5.6 kmh WSW 5.8 mph9.3 kmh 29.92 in1013.2 mb - 0.00 in0.0 mm 0.00 in0.0 mm
03:10 AM 43.5°F6.4°C 38.0°F3.3°C 81% 4.6 mph SW7.4 kmh SW 8.1 mph13.0 kmh 29.92 in1013.2 mb - 0.00 in0.0 mm 0.00 in0.0 mm
03:00 AM 43.5°F6.4°C 38.0°F3.3°C 81% 5.8 mph WNW9.3 kmh WNW 10.4 mph16.7 kmh 29.92 in1013.2 mb - 0.00 in0.0 mm 0.00 in0.0 mm
02:50 AM 43.7°F6.5°C 38.2°F3.4°C 81% 4.6 mph WSW7.4 kmh WSW 3.5 mph5.6 kmh 29.91 in1012.9 mb - 0.00 in0.0 mm 0.00 in0.0 mm
02:40 AM 43.9°F6.6°C 38.4°F3.6°C 81% 2.3 mph W3.7 kmh W 9.2 mph14.8 kmh 29.91 in1012.9 mb - 0.00 in0.0 mm 0.00 in0.0 mm
02:30 AM 44.0°F6.7°C 38.5°F3.6°C 81% 5.8 mph W9.3 kmh W 12.7 mph20.4 kmh 29.90 in1012.5 mb - 0.00 in0.0 mm 0.00 in0.0 mm
02:20 AM 44.1°F6.7°C 38.3°F3.5°C 80% 5.8 mph WNW9.3 kmh WNW 11.5 mph18.5 kmh 29.90 in1012.5 mb - 0.00 in0.0 mm 0.00 in0.0 mm
02:10 AM 44.3°F6.8°C 38.5°F3.6°C 80% 3.5 mph W5.6 kmh W 8.1 mph13.0 kmh 29.90 in1012.5 mb - 0.00 in0.0 mm 0.00 in0.0 mm
02:00 AM 44.5°F6.9°C 38.7°F3.7°C 80% 4.6 mph NW7.4 kmh NW 5.8 mph9.3 kmh 29.90 in1012.5 mb - 0.00 in0.0 mm 0.00 in0.0 mm
01:50 AM 44.6°F7.0°C 38.8°F3.8°C 80% 2.3 mph WSW3.7 kmh WSW 8.1 mph13.0 kmh 29.89 in1012.2 mb - 0.00 in0.0 mm 0.00 in0.0 mm
01:40 AM 44.7°F7.1°C 38.9°F3.8°C 80% 5.8 mph W9.3 kmh W 12.7 mph20.4 kmh 29.89 in1012.2 mb - 0.00 in0.0 mm 0.00 in0.0 mm
01:30 AM 44.7°F7.1°C 39.0°F3.9°C 80% 4.6 mph WSW7.4 kmh WSW 9.2 mph14.8 kmh 29.89 in1012.2 mb - 0.00 in0.0 mm 0.00 in0.0 mm
01:20 AM 44.9°F7.2°C 39.1°F3.9°C 80% 2.3 mph W3.7 kmh W 6.9 mph11.1 kmh 29.89 in1012.2 mb - 0.00 in0.0 mm 0.00 in0.0 mm
01:10 AM 45.0°F7.2°C 38.9°F3.8°C 79% 4.6 mph WNW7.4 kmh WNW 10.4 mph16.7 kmh 29.88 in1011.9 mb - 0.00 in0.0 mm 0.00 in0.0 mm
01:00 AM 45.1°F7.3°C 39.0°F3.9°C 79% 4.6 mph WNW7.4 kmh WNW 11.5 mph18.5 kmh 29.88 in1011.9 mb - 0.00 in0.0 mm 0.00 in0.0 mm
12:50 AM 45.0°F7.2°C 38.9°F3.8°C 79% 3.5 mph NW5.6 kmh NW 11.5 mph18.5 kmh 29.87 in1011.5 mb - 0.00 in0.0 mm 0.00 in0.0 mm
12:40 AM 44.9°F7.2°C 39.1°F3.9°C 80% 6.9 mph WSW11.1 kmh WSW 16.1 mph25.9 kmh 29.87 in1011.5 mb - 0.00 in0.0 mm 0.00 in0.0 mm
12:30 AM 45.0°F7.2°C 38.9°F3.8°C 79% 3.5 mph SW5.6 kmh SW 4.6 mph7.4 kmh 29.86 in1011.2 mb - 0.00 in0.0 mm 0.00 in0.0 mm
12:20 AM 45.2°F7.3°C 39.1°F3.9°C 79% 4.6 mph WNW7.4 kmh WNW 3.5 mph5.6 kmh 29.86 in1011.2 mb - 0.00 in0.0 mm 0.00 in0.0 mm
12:10 AM 45.3°F7.4°C 39.1°F3.9°C 79% 5.8 mph WSW9.3 kmh WSW 16.1 mph25.9 kmh 29.86 in1011.2 mb - 0.00 in0.0 mm 0.00 in0.0 mm
12:00 AM 45.3°F7.4°C 39.2°F4.0°C 79% 3.5 mph WSW5.6 kmh WSW 9.2 mph14.8 kmh 29.85 in1010.8 mb - 0.00 in0.0 mm 0.00 in0.0 mm